DELGM EDDN-ZZZZ

Flight info

Callsign DELGM
Flight time N/A
Altitude 4000
Route ERL2G ERL
Aircraft PA24/L-SDGRY/S

Departure

Time 2026-04-27 13:37
Airport Nuremberg Airport (EDDN)

Arrival

Time N/A
Airport ZZZZ
Time Latitude Longitude Altitude Speed Heading
2026-04-27 13:37 49.42547 10.99371 3005 ft 111 kts 208°
2026-04-27 13:37 49.41850 10.98878 3120 ft 111 kts 202°
2026-04-27 13:37 49.41131 10.98430 3246 ft 111 kts 202°
2026-04-27 13:38 49.40402 10.97972 3274 ft 119 kts 202°
2026-04-27 13:38 49.39628 10.97496 3302 ft 121 kts 202°
2026-04-27 13:38 49.38841 10.97000 3312 ft 123 kts 202°
2026-04-27 13:38 49.38037 10.96503 3322 ft 127 kts 202°
2026-04-27 13:39 49.37211 10.95984 3313 ft 129 kts 202°
2026-04-27 13:39 49.36390 10.95473 3315 ft 131 kts 203°
2026-04-27 13:39 49.35570 10.94877 3316 ft 130 kts 206°
2026-04-27 13:39 49.34742 10.94248 3243 ft 136 kts 206°
2026-04-27 13:40 49.33974 10.93664 3540 ft 114 kts 206°
2026-04-27 13:40 49.33271 10.93135 3683 ft 111 kts 206°
2026-04-27 13:40 49.32583 10.92612 3825 ft 111 kts 206°
2026-04-27 13:40 49.31897 10.92086 3969 ft 110 kts 206°
2026-04-27 13:41 49.31211 10.91560 4069 ft 111 kts 207°
2026-04-27 13:41 49.30523 10.91031 4222 ft 110 kts 206°
2026-04-27 13:41 49.29836 10.90500 4327 ft 111 kts 206°
2026-04-27 13:41 49.29145 10.89969 4439 ft 110 kts 206°
2026-04-27 13:42 49.28467 10.89454 4555 ft 110 kts 206°
2026-04-27 13:42 49.27780 10.88931 4683 ft 110 kts 206°
2026-04-27 13:42 49.27087 10.88394 4834 ft 113 kts 206°
2026-04-27 13:42 49.26385 10.87867 4934 ft 112 kts 206°
2026-04-27 13:43 49.25687 10.87336 5049 ft 113 kts 206°
2026-04-27 13:43 49.24986 10.86800 5181 ft 112 kts 206°
2026-04-27 13:43 49.24287 10.86277 5274 ft 111 kts 206°
2026-04-27 13:43 49.23594 10.85754 5368 ft 111 kts 206°
2026-04-27 13:44 49.22899 10.85234 5475 ft 111 kts 206°
2026-04-27 13:44 49.22201 10.84722 5577 ft 112 kts 206°
2026-04-27 13:44 49.21498 10.84211 5680 ft 112 kts 206°
2026-04-27 13:44 49.20788 10.83708 5776 ft 112 kts 205°
2026-04-27 13:45 49.20082 10.83199 5882 ft 112 kts 207°
2026-04-27 13:45 49.19409 10.82601 5975 ft 112 kts 212°
2026-04-27 13:45 49.18746 10.81982 6067 ft 112 kts 212°
2026-04-27 13:45 49.18071 10.81372 6178 ft 113 kts 212°
2026-04-27 13:46 49.17395 10.80764 6281 ft 112 kts 212°
2026-04-27 13:46 49.16721 10.80154 6397 ft 113 kts 212°
2026-04-27 13:46 49.16044 10.79551 6482 ft 113 kts 212°
2026-04-27 13:46 49.15369 10.78967 6581 ft 113 kts 212°
2026-04-27 13:47 49.14682 10.78380 6675 ft 113 kts 212°
2026-04-27 13:47 49.14004 10.77768 6754 ft 113 kts 212°
2026-04-27 13:47 49.13325 10.77162 6842 ft 113 kts 212°
2026-04-27 13:47 49.12644 10.76559 6916 ft 113 kts 212°
2026-04-27 13:48 49.11961 10.75955 7023 ft 113 kts 212°
2026-04-27 13:48 49.11271 10.75357 7125 ft 114 kts 212°
2026-04-27 13:48 49.10587 10.74770 7185 ft 114 kts 212°
2026-04-27 13:48 49.09895 10.74177 7259 ft 114 kts 212°
2026-04-27 13:49 49.09204 10.73577 7345 ft 114 kts 212°
2026-04-27 13:49 49.08513 10.72975 7419 ft 114 kts 212°
2026-04-27 13:49 49.07820 10.72376 7481 ft 114 kts 212°
2026-04-27 13:49 49.07127 10.71778 7550 ft 114 kts 212°
2026-04-27 13:50 49.06432 10.71176 7617 ft 114 kts 212°
2026-04-27 13:50 49.05735 10.70580 7692 ft 115 kts 212°
2026-04-27 13:50 49.05038 10.69984 7757 ft 115 kts 212°
2026-04-27 13:50 49.04337 10.69381 7808 ft 118 kts 211°
2026-04-27 13:51 49.03615 10.68761 7805 ft 120 kts 211°
2026-04-27 13:51 49.02881 10.68135 7791 ft 122 kts 211°
2026-04-27 13:51 49.02134 10.67521 7790 ft 122 kts 212°
2026-04-27 13:51 49.01391 10.66912 7786 ft 120 kts 212°
2026-04-27 13:52 49.00905 10.66509 7790 ft 120 kts 211°
2026-04-27 13:52 48.99929 10.65714 7789 ft 121 kts 211°
2026-04-27 13:52 48.99185 10.65112 7789 ft 122 kts 211°
2026-04-27 13:52 48.98438 10.64495 7788 ft 121 kts 211°
2026-04-27 13:53 48.97205 10.63490 7788 ft 121 kts 211°
2026-04-27 13:53 48.96465 10.62877 7784 ft 120 kts 211°
2026-04-27 13:53 48.95721 10.62278 7789 ft 122 kts 211°
2026-04-27 13:54 48.94969 10.61676 7790 ft 123 kts 211°
2026-04-27 13:54 48.94221 10.61064 7776 ft 121 kts 211°
2026-04-27 13:54 48.93476 10.60464 7778 ft 120 kts 211°
2026-04-27 13:54 48.92732 10.59880 7776 ft 120 kts 211°
2026-04-27 13:55 48.91980 10.59292 7785 ft 124 kts 211°
2026-04-27 13:55 48.91202 10.58680 7783 ft 127 kts 211°
2026-04-27 13:55 48.90409 10.58054 7766 ft 129 kts 211°
2026-04-27 13:55 48.89610 10.57424 7776 ft 129 kts 210°
2026-04-27 13:56 48.88808 10.56794 7779 ft 131 kts 211°
2026-04-27 13:56 48.87997 10.56153 7781 ft 132 kts 210°
2026-04-27 13:56 48.87192 10.55516 7785 ft 132 kts 210°
2026-04-27 13:56 48.86381 10.54875 7777 ft 131 kts 211°
2026-04-27 13:57 48.85566 10.54247 7770 ft 132 kts 210°
2026-04-27 13:57 48.84750 10.53609 7773 ft 132 kts 211°
2026-04-27 13:57 48.83941 10.52973 7770 ft 130 kts 210°
2026-04-27 13:57 48.83132 10.52351 7772 ft 130 kts 210°
2026-04-27 13:58 48.82325 10.51725 7771 ft 131 kts 210°
2026-04-27 13:58 48.81512 10.51098 7774 ft 131 kts 210°
2026-04-27 13:58 48.80700 10.50474 7773 ft 131 kts 210°
2026-04-27 13:58 48.79888 10.49853 7772 ft 130 kts 210°
2026-04-27 13:59 48.79073 10.49224 7774 ft 132 kts 210°
2026-04-27 13:59 48.78265 10.48601 7767 ft 131 kts 210°
2026-04-27 13:59 48.77452 10.47970 7762 ft 131 kts 210°
2026-04-27 13:59 48.76638 10.47347 7763 ft 131 kts 210°
2026-04-27 14:00 48.75813 10.46715 7767 ft 132 kts 210°
2026-04-27 14:00 48.74998 10.46097 7768 ft 133 kts 209°
2026-04-27 14:00 48.74164 10.45468 7766 ft 134 kts 210°
2026-04-27 14:00 48.73331 10.44841 7766 ft 133 kts 210°
2026-04-27 14:01 48.72510 10.44213 7766 ft 132 kts 210°
2026-04-27 14:01 48.71684 10.43588 7764 ft 133 kts 210°
2026-04-27 14:01 48.70856 10.42966 7767 ft 133 kts 209°
2026-04-27 14:01 48.70023 10.42348 7755 ft 133 kts 209°
2026-04-27 14:02 48.69194 10.41730 7756 ft 132 kts 210°
2026-04-27 14:02 48.68371 10.41114 7752 ft 132 kts 209°
2026-04-27 14:02 48.67546 10.40495 7758 ft 132 kts 210°
2026-04-27 14:02 48.66724 10.39879 7753 ft 132 kts 209°
2026-04-27 14:03 48.65913 10.39277 7755 ft 132 kts 209°
2026-04-27 14:03 48.65089 10.38674 7753 ft 131 kts 209°
2026-04-27 14:03 48.64269 10.38072 7756 ft 131 kts 209°
2026-04-27 14:03 48.63445 10.37468 7755 ft 132 kts 209°
2026-04-27 14:04 48.62621 10.36866 7754 ft 131 kts 209°
2026-04-27 14:04 48.61798 10.36265 7756 ft 132 kts 209°
2026-04-27 14:04 48.60972 10.35660 7745 ft 131 kts 209°
2026-04-27 14:04 48.60143 10.35069 7748 ft 132 kts 208°
2026-04-27 14:05 48.59310 10.34476 7753 ft 132 kts 209°
2026-04-27 14:05 48.58494 10.33884 7748 ft 131 kts 209°
2026-04-27 14:05 48.57668 10.33288 7755 ft 132 kts 209°
2026-04-27 14:05 48.56839 10.32693 7750 ft 132 kts 209°
2026-04-27 14:06 48.56011 10.32094 7749 ft 132 kts 209°
2026-04-27 14:06 48.55178 10.31500 7752 ft 132 kts 208°
2026-04-27 14:06 48.54348 10.30911 7750 ft 132 kts 208°
2026-04-27 14:06 48.53514 10.30318 7756 ft 132 kts 208°
2026-04-27 14:07 48.52686 10.29726 7749 ft 132 kts 208°
2026-04-27 14:07 48.51852 10.29135 7753 ft 133 kts 209°
2026-04-27 14:07 48.51015 10.28539 7750 ft 133 kts 208°
2026-04-27 14:07 48.50180 10.27955 7748 ft 132 kts 208°
2026-04-27 14:08 48.49348 10.27367 7751 ft 132 kts 208°
2026-04-27 14:08 48.48520 10.26783 7749 ft 131 kts 208°
2026-04-27 14:08 48.47696 10.26199 7748 ft 131 kts 208°
2026-04-27 14:08 48.46876 10.25627 7748 ft 131 kts 208°
2026-04-27 14:09 48.46048 10.25044 7749 ft 131 kts 208°
2026-04-27 14:09 48.45219 10.24465 7741 ft 132 kts 208°
2026-04-27 14:09 48.44384 10.23889 7746 ft 132 kts 208°
2026-04-27 14:09 48.43547 10.23309 7744 ft 132 kts 208°
2026-04-27 14:10 48.42712 10.22733 7743 ft 131 kts 208°
2026-04-27 14:10 48.41881 10.22162 7737 ft 131 kts 208°
2026-04-27 14:10 48.41053 10.21592 7740 ft 131 kts 208°
2026-04-27 14:10 48.40223 10.21028 7738 ft 131 kts 207°
2026-04-27 14:11 48.39393 10.20457 7737 ft 132 kts 208°
2026-04-27 14:11 48.38556 10.19888 7738 ft 132 kts 207°
2026-04-27 14:11 48.37721 10.19318 7735 ft 132 kts 208°
2026-04-27 14:11 48.36884 10.18753 7730 ft 131 kts 207°
2026-04-27 14:12 48.36047 10.18194 7735 ft 132 kts 207°
2026-04-27 14:12 48.35210 10.17637 7734 ft 132 kts 207°
2026-04-27 14:12 48.34383 10.17083 7732 ft 132 kts 207°
2026-04-27 14:12 48.33546 10.16526 7732 ft 131 kts 207°
2026-04-27 14:13 48.32709 10.15968 7731 ft 131 kts 207°
2026-04-27 14:13 48.31872 10.15408 7731 ft 132 kts 207°
2026-04-27 14:13 48.31036 10.14848 7727 ft 131 kts 207°
2026-04-27 14:13 48.30199 10.14291 7727 ft 132 kts 207°
2026-04-27 14:14 48.29359 10.13736 7727 ft 132 kts 207°
2026-04-27 14:14 48.28521 10.13180 7724 ft 132 kts 207°
2026-04-27 14:14 48.27682 10.12623 7725 ft 132 kts 207°
2026-04-27 14:14 48.26855 10.12076 7725 ft 132 kts 207°
2026-04-27 14:15 48.26016 10.11523 7727 ft 132 kts 207°
2026-04-27 14:15 48.25174 10.10970 7729 ft 132 kts 207°
2026-04-27 14:15 48.24329 10.10421 7730 ft 133 kts 207°
2026-04-27 14:15 48.23484 10.09869 7726 ft 133 kts 207°
2026-04-27 14:16 48.22637 10.09314 7725 ft 133 kts 207°
2026-04-27 14:16 48.21791 10.08762 7726 ft 132 kts 206°
2026-04-27 14:16 48.20946 10.08216 7725 ft 132 kts 206°
2026-04-27 14:16 48.20110 10.07672 7721 ft 130 kts 207°
2026-04-27 14:17 48.19279 10.07144 7590 ft 132 kts 206°
2026-04-27 14:17 48.18436 10.06599 7502 ft 130 kts 206°
2026-04-27 14:17 48.17619 10.06069 7410 ft 130 kts 206°
2026-04-27 14:17 48.16777 10.05521 7304 ft 131 kts 206°
2026-04-27 14:18 48.15948 10.04983 7224 ft 130 kts 206°
2026-04-27 14:18 48.15116 10.04443 7121 ft 131 kts 206°
2026-04-27 14:18 48.14287 10.03905 7043 ft 129 kts 206°
2026-04-27 14:18 48.13455 10.03380 6945 ft 130 kts 206°
2026-04-27 14:19 48.12621 10.02863 6862 ft 129 kts 206°
2026-04-27 14:19 48.11789 10.02345 6778 ft 130 kts 206°
2026-04-27 14:19 48.10951 10.01832 6697 ft 129 kts 206°
2026-04-27 14:19 48.10120 10.01306 6627 ft 130 kts 206°
2026-04-27 14:20 48.09291 10.00785 6553 ft 129 kts 206°
2026-04-27 14:20 48.08467 10.00266 6487 ft 128 kts 206°
2026-04-27 14:20 48.07648 9.99739 6410 ft 128 kts 206°
2026-04-27 14:20 48.06816 9.99227 6299 ft 130 kts 206°
2026-04-27 14:21 48.05989 9.98701 6200 ft 129 kts 205°
2026-04-27 14:21 48.05164 9.98170 6100 ft 130 kts 206°
2026-04-27 14:21 48.04327 9.97648 6011 ft 130 kts 205°
2026-04-27 14:21 48.03502 9.97133 5884 ft 131 kts 206°
2026-04-27 14:22 48.02662 9.96599 5770 ft 131 kts 205°
2026-04-27 14:22 48.01826 9.96067 5657 ft 131 kts 205°
2026-04-27 14:22 48.00986 9.95523 5537 ft 131 kts 205°
2026-04-27 14:22 48.00152 9.94974 5421 ft 131 kts 205°
2026-04-27 14:23 47.99317 9.94413 5314 ft 132 kts 205°
2026-04-27 14:23 47.98484 9.93850 5203 ft 131 kts 205°
2026-04-27 14:23 47.97657 9.93276 5080 ft 132 kts 208°
2026-04-27 14:23 47.96996 9.92295 4891 ft 137 kts 238°
2026-04-27 14:24 47.96517 9.91146 4896 ft 126 kts 240°
2026-04-27 14:24 47.96042 9.89992 4706 ft 133 kts 240°
2026-04-27 14:24 47.95562 9.88817 4660 ft 129 kts 240°
2026-04-27 14:24 47.95055 9.87698 4504 ft 133 kts 236°
2026-04-27 14:25 47.94515 9.86607 4440 ft 130 kts 235°
2026-04-27 14:25 47.93989 9.85522 4309 ft 130 kts 235°
2026-04-27 14:25 47.93459 9.84430 4221 ft 129 kts 235°
2026-04-27 14:25 47.92926 9.83347 4121 ft 130 kts 234°
2026-04-27 14:26 47.92389 9.82240 4017 ft 132 kts 235°
2026-04-27 14:26 47.91850 9.81147 3900 ft 131 kts 235°
2026-04-27 14:26 47.91311 9.80038 3795 ft 131 kts 235°
2026-04-27 14:26 47.90781 9.78942 3740 ft 130 kts 234°
2026-04-27 14:27 47.90239 9.77851 3725 ft 132 kts 234°
2026-04-27 14:27 47.89690 9.76771 3671 ft 132 kts 235°
2026-04-27 14:27 47.89139 9.75672 3655 ft 130 kts 234°
2026-04-27 14:27 47.88604 9.74587 3596 ft 130 kts 234°
2026-04-27 14:28 47.88066 9.73510 3550 ft 130 kts 233°
2026-04-27 14:28 47.87512 9.72430 3592 ft 132 kts 234°
2026-04-27 14:28 47.86966 9.71332 3585 ft 133 kts 234°
2026-04-27 14:28 47.86422 9.70238 3604 ft 130 kts 234°
2026-04-27 14:29 47.85880 9.69151 3625 ft 131 kts 234°
2026-04-27 14:29 47.85338 9.68045 3643 ft 131 kts 234°
2026-04-27 14:29 47.84798 9.66949 3685 ft 131 kts 235°
2026-04-27 14:29 47.84247 9.65857 3727 ft 132 kts 234°
2026-04-27 14:30 47.83700 9.64770 3763 ft 130 kts 233°
2026-04-27 14:30 47.83158 9.63688 3773 ft 131 kts 235°
2026-04-27 14:30 47.82621 9.62623 3812 ft 130 kts 234°
2026-04-27 14:30 47.82070 9.61544 3878 ft 128 kts 233°
2026-04-27 14:31 47.81540 9.60513 3871 ft 127 kts 234°
2026-04-27 14:31 47.80994 9.59441 3830 ft 128 kts 234°
2026-04-27 14:31 47.80469 9.58408 3863 ft 126 kts 233°
2026-04-27 14:31 47.79935 9.57346 3822 ft 127 kts 234°
2026-04-27 14:32 47.79413 9.56306 3824 ft 125 kts 234°
2026-04-27 14:32 47.78887 9.55263 3712 ft 129 kts 233°
2026-04-27 14:32 47.78343 9.54228 3707 ft 124 kts 233°
2026-04-27 14:32 47.77804 9.53210 3623 ft 127 kts 232°
2026-04-27 14:33 47.77255 9.52218 3627 ft 121 kts 231°
2026-04-27 14:33 47.76703 9.51250 3622 ft 122 kts 230°
2026-04-27 14:33 47.76138 9.50340 3653 ft 120 kts 227°
2026-04-27 14:33 47.75574 9.49459 3674 ft 115 kts 219°
2026-04-27 14:34 47.74860 9.49127 3715 ft 112 kts 174°
2026-04-27 14:34 47.74166 9.49617 3746 ft 109 kts 128°
2026-04-27 14:34 47.73833 9.50604 3745 ft 110 kts 101°
2026-04-27 14:34 47.73738 9.51730 3721 ft 109 kts 76°
2026-04-27 14:35 47.73954 9.52810 3658 ft 111 kts 67°
2026-04-27 14:35 47.74192 9.53900 3575 ft 110 kts 75°
2026-04-27 14:35 47.74177 9.55013 3539 ft 109 kts 103°
2026-04-27 14:35 47.73737 9.55925 3489 ft 112 kts 141°
2026-04-27 14:36 47.72978 9.56324 3373 ft 123 kts 166°
2026-04-27 14:36 47.72097 9.56492 3248 ft 128 kts 173°
2026-04-27 14:36 47.71219 9.56473 3111 ft 125 kts 182°
2026-04-27 14:36 47.70348 9.56285 2835 ft 128 kts 189°
2026-04-27 14:37 47.69518 9.55828 2628 ft 128 kts 206°
2026-04-27 14:37 47.68795 9.55042 2322 ft 126 kts 226°
2026-04-27 14:37 47.68253 9.54037 1947 ft 123 kts 239°
2026-04-27 14:37 47.67841 9.52985 1658 ft 113 kts 245°
2026-04-27 14:38 47.67449 9.51963 1490 ft 113 kts 244°
2026-04-27 14:38 47.67071 9.50987 1428 ft 109 kts 242°
2026-04-27 14:38 47.66693 9.49992 1586 ft 110 kts 243°
2026-04-27 14:38 47.66450 9.48937 1757 ft 109 kts 264°
2026-04-27 14:39 47.66331 9.47815 1898 ft 113 kts 266°
2026-04-27 14:39 47.66289 9.46669 2069 ft 109 kts 275°
2026-04-27 14:39 47.66353 9.45545 2224 ft 108 kts 280°
2026-04-27 14:39 47.66472 9.44455 2357 ft 109 kts 282°
2026-04-27 14:40 47.66572 9.43317 2442 ft 113 kts 277°
2026-04-27 14:40 47.66631 9.42156 2551 ft 111 kts 277°
2026-04-27 14:40 47.66686 9.41015 2650 ft 112 kts 277°
2026-04-27 14:40 47.66750 9.40256 2727 ft 111 kts 282°
2026-04-27 14:41 47.66883 9.39129 2825 ft 110 kts 283°
2026-04-27 14:41 47.67015 9.37993 2980 ft 113 kts 283°
2026-04-27 14:41 47.67153 9.36450 3099 ft 115 kts 283°
2026-04-27 14:41 47.67251 9.35668 3141 ft 113 kts 285°
2026-04-27 14:42 47.67412 9.34524 3226 ft 113 kts 287°
2026-04-27 14:42 47.67585 9.33385 3288 ft 113 kts 292°
2026-04-27 14:42 47.67874 9.32309 3336 ft 112 kts 298°
2026-04-27 14:42 47.68211 9.31279 3357 ft 112 kts 302°
2026-04-27 14:43 47.68571 9.30251 3405 ft 112 kts 304°
2026-04-27 14:43 47.68975 9.29274 3427 ft 110 kts 309°
2026-04-27 14:43 47.69429 9.28371 3477 ft 109 kts 312°
2026-04-27 14:43 47.69906 9.27486 3516 ft 111 kts 311°
2026-04-27 14:44 47.70406 9.26603 3618 ft 112 kts 319°
2026-04-27 14:44 47.70984 9.25840 3698 ft 111 kts 322°
2026-04-27 14:44 47.71542 9.25024 3705 ft 113 kts 317°
2026-04-27 14:44 47.72071 9.24154 3742 ft 114 kts 317°
2026-04-27 14:45 47.72662 9.23362 3749 ft 114 kts 325°
2026-04-27 14:45 47.73283 9.22645 3764 ft 113 kts 322°
2026-04-27 14:45 47.73704 9.21620 3592 ft 119 kts 298°
2026-04-27 14:45 47.73834 9.20474 3478 ft 113 kts 261°
2026-04-27 14:46 47.73442 9.19499 3367 ft 112 kts 219°
2026-04-27 14:46 47.72715 9.19168 3253 ft 110 kts 172°
2026-04-27 14:46 47.72133 9.19745 3118 ft 103 kts 111°
2026-04-27 14:46 47.72206 9.20799 2847 ft 111 kts 56°
2026-04-27 14:47 47.72855 9.21372 2685 ft 111 kts
2026-04-27 14:47 47.73569 9.20927 2473 ft 116 kts 325°
2026-04-27 14:47 47.74122 9.20059 2278 ft 115 kts 312°
2026-04-27 14:47 47.74608 9.19132 2075 ft 111 kts 312°
2026-04-27 14:48 47.75095 9.18258 1829 ft 109 kts 313°
2026-04-27 14:48 47.75917 9.16519 1582 ft 98 kts 303°
2026-04-27 14:48 47.76272 9.15625 1465 ft 104 kts 303°
2026-04-27 14:49 47.76632 9.14791 1600 ft 82 kts 329°
2026-04-27 14:49 47.77142 9.14723 1819 ft 75 kts 20°
2026-04-27 14:49 47.77521 9.15213 2035 ft 77 kts 61°
2026-04-27 14:49 47.77539 9.16065 2161 ft 95 kts 98°
2026-04-27 14:50 47.77434 9.17117 2250 ft 106 kts 94°
2026-04-27 14:50 47.77447 9.18163 2419 ft 102 kts 70°
2026-04-27 14:50 47.77888 9.18968 2494 ft 103 kts 31°
2026-04-27 14:50 47.78492 9.19561 2534 ft 105 kts 41°
2026-04-27 14:51 47.79137 9.19969 2567 ft 103 kts
2026-04-27 14:51 47.79869 9.19829 2560 ft 107 kts 344°
2026-04-27 14:51 47.80491 9.19276 2570 ft 108 kts 323°
2026-04-27 14:51 47.81198 9.19023 2584 ft 106 kts 24°
2026-04-27 14:52 47.81487 9.19911 2727 ft 109 kts 106°
2026-04-27 14:52 47.80907 9.20645 2800 ft 114 kts 149°
2026-04-27 14:52 47.80199 9.21121 2782 ft 111 kts 146°
2026-04-27 14:52 47.79553 9.21732 2701 ft 110 kts 137°
2026-04-27 14:53 47.78938 9.22402 2574 ft 110 kts 138°
2026-04-27 14:53 47.78322 9.23100 2434 ft 111 kts 151°
2026-04-27 14:53 47.77595 9.22910 2288 ft 116 kts 225°
2026-04-27 14:53 47.77669 9.21933 2206 ft 102 kts 333°
2026-04-27 14:54 47.78227 9.21401 2082 ft 96 kts 320°
2026-04-27 14:54 47.78659 9.20724 1937 ft 82 kts 317°
2026-04-27 14:54 47.79005 9.20137 1799 ft 72 kts 314°
2026-04-27 14:54 47.79325 9.19581 1667 ft 71 kts 314°
2026-04-27 14:55 47.79621 9.19033 1607 ft 59 kts 306°
2026-04-27 14:55 47.79807 9.18505 1841 ft 58 kts 273°
2026-04-27 14:55 47.79472 9.18267 1962 ft 75 kts 148°
2026-04-27 14:55 47.79021 9.18798 2189 ft 85 kts 140°
2026-04-27 14:56 47.78563 9.19371 2378 ft 89 kts 140°
2026-04-27 14:56 47.77988 9.19863 2315 ft 97 kts 144°
2026-04-27 14:56 47.77944 9.20625 2312 ft 82 kts 32°
2026-04-27 14:56 47.78463 9.20505 2100 ft 82 kts 338°
2026-04-27 14:57 47.78946 9.20133 1872 ft 77 kts 332°
2026-04-27 14:57 47.79324 9.19578 1657 ft 75 kts 311°
2026-04-27 14:57 47.79597 9.19064 1586 ft 48 kts 312°
2026-04-27 14:57 47.79685 9.18873 1600 ft 4 kts 303°
2026-04-27 14:58 47.79696 9.18880 1599 ft 3 kts 90°
2026-04-27 14:58 47.79681 9.18908 1593 ft 0 kts 126°
2026-04-27 15:00 47.79650 9.18971 1585 ft 38 kts 126°
2026-04-27 15:00 47.79381 9.19404 1691 ft 65 kts 124°
2026-04-27 15:01 47.79069 9.19947 1942 ft 73 kts 124°
2026-04-27 15:01 47.78698 9.20575 2163 ft 87 kts 127°
2026-04-27 15:01 47.78288 9.21278 2364 ft 91 kts 127°
2026-04-27 15:01 47.77857 9.21957 2507 ft 91 kts 129°
2026-04-27 15:02 47.77397 9.22602 2636 ft 91 kts 130°
2026-04-27 15:02 47.76921 9.23208 2769 ft 90 kts 133°
2026-04-27 15:02 47.76435 9.23833 2880 ft 92 kts 133°
2026-04-27 15:02 47.75947 9.24442 2999 ft 93 kts 137°
2026-04-27 15:03 47.75417 9.25014 3078 ft 95 kts 140°
2026-04-27 15:03 47.74892 9.25608 3146 ft 98 kts 137°
2026-04-27 15:03 47.74363 9.26252 3234 ft 98 kts 134°
2026-04-27 15:03 47.73857 9.26938 3291 ft 100 kts 134°
2026-04-27 15:04 47.73308 9.27564 3311 ft 99 kts 138°
2026-04-27 15:04 47.72753 9.28180 3305 ft 100 kts 137°
2026-04-27 15:04 47.72212 9.28824 3302 ft 100 kts 136°
2026-04-27 15:04 47.71648 9.29443 3298 ft 101 kts 141°
2026-04-27 15:05 47.71073 9.30034 3275 ft 100 kts 133°
2026-04-27 15:05 47.70575 9.30748 3243 ft 99 kts 129°
2026-04-27 15:05 47.70101 9.31479 3194 ft 98 kts 127°
2026-04-27 15:05 47.69676 9.32274 3132 ft 98 kts 111°
2026-04-27 15:06 47.69564 9.33253 3081 ft 95 kts 82°
2026-04-27 15:06 47.69653 9.34203 3056 ft 92 kts 77°
2026-04-27 15:06 47.69786 9.35116 3037 ft 89 kts 69°
2026-04-27 15:06 47.70001 9.36009 2951 ft 93 kts 70°
2026-04-27 15:07 47.70142 9.36927 2922 ft 92 kts 77°
2026-04-27 15:07 47.70333 9.37856 2910 ft 95 kts 66°
2026-04-27 15:07 47.70601 9.38718 2895 ft 90 kts 57°
2026-04-27 15:07 47.70996 9.39459 2855 ft 93 kts 52°
2026-04-27 15:08 47.71260 9.40328 2798 ft 93 kts 75°
2026-04-27 15:08 47.71269 9.41288 2744 ft 95 kts 99°
2026-04-27 15:08 47.71073 9.42221 2685 ft 96 kts 103°
2026-04-27 15:08 47.70838 9.43154 2623 ft 96 kts 107°
2026-04-27 15:09 47.70572 9.44063 2573 ft 96 kts 109°
2026-04-27 15:09 47.70352 9.44983 2520 ft 95 kts 99°
2026-04-27 15:09 47.70239 9.45959 2477 ft 96 kts 103°
2026-04-27 15:09 47.69992 9.46886 2445 ft 97 kts 112°
2026-04-27 15:10 47.69675 9.47750 2373 ft 97 kts 118°
2026-04-27 15:10 47.69276 9.48573 2293 ft 101 kts 123°
2026-04-27 15:10 47.68916 9.49427 2231 ft 94 kts 100°
2026-04-27 15:10 47.68933 9.50371 2220 ft 87 kts 61°
2026-04-27 15:11 47.69339 9.50995 2180 ft 83 kts 37°
2026-04-27 15:11 47.69779 9.51541 2149 ft 82 kts 38°
2026-04-27 15:11 47.70191 9.52147 2116 ft 81 kts 40°
2026-04-27 15:11 47.70629 9.52660 2119 ft 79 kts 43°
2026-04-27 15:12 47.70806 9.53430 2056 ft 88 kts 88°
2026-04-27 15:12 47.70560 9.54273 2010 ft 96 kts 125°
2026-04-27 15:12 47.70085 9.54993 2046 ft 96 kts 130°
2026-04-27 15:12 47.69603 9.55650 2103 ft 94 kts 134°
2026-04-27 15:13 47.69032 9.56109 2183 ft 92 kts 168°
2026-04-27 15:13 47.68520 9.55668 2158 ft 97 kts 248°
2026-04-27 15:13 47.68328 9.54724 1986 ft 89 kts 261°
2026-04-27 15:13 47.68137 9.53861 1753 ft 87 kts 255°
2026-04-27 15:14 47.67875 9.53070 1589 ft 84 kts 247°
2026-04-27 15:14 47.67589 9.52341 1423 ft 80 kts 251°
2026-04-27 15:14 47.67326 9.51655 1356 ft 70 kts 248°
2026-04-27 15:14 47.67130 9.51136 1355 ft 42 kts 238°
2026-04-27 15:15 47.67017 9.50852 1347 ft 21 kts 236°
2026-04-27 15:15 47.66942 9.50729 1344 ft 11 kts 217°
2026-04-27 15:15 47.66837 9.50630 1345 ft 20 kts 210°
2026-04-27 15:15 47.66762 9.50666 1345 ft 16 kts 77°
2026-04-27 15:16 47.66828 9.50840 1344 ft 21 kts 60°
2026-04-27 15:16 47.66880 9.50980 1349 ft 13 kts 62°
2026-04-27 15:16 47.66834 9.51079 1351 ft 7 kts 134°
2026-04-27 15:16 47.66843 9.51160 1355 ft 15 kts 60°
2026-04-27 15:17 47.66858 9.51250 1354 ft 7 kts 135°
2026-04-27 15:17 47.66857 9.51271 1354 ft 0 kts 347°